createdAt,value
2023-11-30T05:24:35.663Z,9.83
2023-11-30T05:28:39.477Z,9.63
2023-11-30T05:32:42.469Z,9.38
2023-11-30T05:36:45.536Z,8.83
2023-11-30T05:40:48.356Z,8.43
2023-11-30T05:44:51.621Z,9.43
2023-11-30T05:48:55.453Z,10.13
2023-11-30T05:52:58.722Z,7.85
2023-11-30T05:57:02.737Z,10.35
2023-11-30T06:01:06.064Z,10.73
2023-11-30T06:05:09.315Z,15.40
2023-11-30T06:09:12.092Z,10.18
2023-11-30T06:13:16.918Z,10.05
2023-11-30T06:17:20.197Z,9.57
2023-11-30T06:21:23.366Z,11.68
2023-11-30T06:25:26.157Z,10.18
2023-11-30T06:29:30.602Z,9.67
2023-11-30T06:33:33.246Z,8.85
2023-11-30T06:37:36.382Z,9.80
2023-11-30T06:41:39.277Z,9.67
2023-11-30T06:45:42.754Z,11.88
2023-11-30T06:49:46.644Z,15.77
2023-11-30T06:53:49.697Z,11.23
2023-11-30T06:57:52.462Z,12.65
2023-11-30T07:01:55.572Z,10.48
2023-11-30T07:05:59.086Z,9.95
2023-11-30T07:10:02.422Z,9.43
2023-11-30T07:14:05.168Z,13.10
2023-11-30T07:18:10.377Z,15.65
2023-11-30T07:22:13.367Z,17.33
2023-11-30T07:26:16.887Z,17.75
2023-11-30T07:30:19.728Z,19.23
2023-11-30T07:34:22.873Z,12.60
2023-11-30T07:38:25.703Z,11.85
2023-11-30T07:42:35.115Z,8.52
2023-11-30T07:46:40.161Z,10.37
2023-11-30T07:50:43.186Z,9.55
2023-11-30T07:54:45.937Z,10.52
2023-11-30T07:58:50.069Z,10.75
2023-11-30T08:02:54.063Z,11.33
2023-11-30T08:06:57.754Z,10.68
2023-11-30T08:11:02.482Z,11.80
2023-11-30T08:15:08.385Z,17.17
2023-11-30T08:19:11.833Z,20.48
2023-11-30T08:23:15.719Z,13.52
2023-11-30T08:27:20.029Z,10.93
2023-11-30T08:31:23.835Z,12.60
2023-11-30T08:35:28.635Z,12.07
2023-11-30T08:39:32.920Z,12.02
2023-11-30T08:43:35.915Z,10.90
2023-11-30T08:47:44.207Z,12.73
2023-11-30T08:51:47.323Z,13.68
2023-11-30T08:55:50.700Z,16.67
2023-11-30T08:59:53.633Z,15.63
2023-11-30T09:04:06.601Z,19.85
2023-11-30T09:08:09.533Z,15.90
2023-11-30T09:12:13.092Z,11.63
2023-11-30T09:16:15.984Z,12.07
2023-11-30T09:20:21.434Z,13.10
2023-11-30T09:24:24.619Z,12.10
2023-11-30T09:28:28.010Z,10.52
2023-11-30T09:32:30.964Z,11.23
2023-11-30T09:36:34.636Z,11.60
2023-11-30T09:40:37.674Z,11.43
2023-11-30T09:44:41.080Z,11.12
2023-11-30T09:48:44.437Z,11.80
2023-11-30T09:52:47.967Z,12.50
2023-11-30T09:56:50.785Z,11.75
2023-11-30T10:00:53.873Z,11.95
2023-11-30T10:04:58.582Z,10.50
2023-11-30T10:09:03.354Z,11.90
2023-11-30T10:13:07.172Z,12.57
2023-11-30T10:17:10.283Z,13.67
2023-11-30T10:21:13.964Z,11.95
2023-11-30T10:25:18.663Z,16.40
2023-11-30T10:29:28.319Z,14.37
2023-11-30T10:33:35.992Z,12.88
2023-11-30T10:37:45.282Z,13.62
2023-11-30T10:41:54.256Z,14.57
2023-11-30T10:45:59.716Z,15.53
2023-11-30T10:50:02.647Z,14.20
2023-11-30T10:54:12.113Z,12.55
2023-11-30T10:58:21.025Z,13.57
2023-11-30T11:02:24.145Z,12.90
2023-11-30T11:06:27.952Z,14.40
2023-11-30T11:10:40.512Z,12.47
2023-11-30T11:14:43.304Z,14.40
2023-11-30T11:18:46.520Z,12.65
2023-11-30T11:22:50.939Z,11.18
2023-11-30T11:27:00.923Z,10.87
2023-11-30T11:31:04.603Z,12.85
2023-11-30T11:35:08.609Z,10.82
2023-11-30T11:39:20.535Z,10.20
2023-11-30T11:43:24.196Z,11.95
2023-11-30T11:47:33.712Z,12.65
2023-11-30T11:51:46.953Z,12.37
2023-11-30T11:55:49.844Z,13.20
2023-11-30T11:59:53.957Z,13.02
2023-11-30T12:03:56.897Z,14.93
2023-11-30T12:08:01.620Z,14.93
2023-11-30T12:12:11.220Z,16.15
2023-11-30T12:16:14.648Z,17.87
2023-11-30T12:20:20.176Z,15.20
2023-11-30T12:24:23.891Z,17.02
2023-11-30T12:28:35.093Z,15.25
2023-11-30T12:32:41.804Z,12.20
2023-11-30T12:36:50.160Z,13.93
2023-11-30T12:40:54.702Z,15.27
2023-11-30T12:44:57.458Z,17.50
2023-11-30T12:49:00.930Z,13.10
2023-11-30T12:53:03.801Z,12.85
2023-11-30T12:57:07.153Z,11.75
2023-11-30T13:01:09.860Z,12.57
2023-11-30T13:05:14.424Z,12.32
2023-11-30T13:09:17.284Z,12.25
2023-11-30T13:13:26.211Z,15.90
2023-11-30T13:17:35.375Z,18.60
2023-11-30T13:21:39.470Z,17.73
2023-11-30T13:25:42.922Z,16.40
2023-11-30T13:29:47.161Z,15.68
2023-11-30T13:33:52.639Z,12.45
2023-11-30T13:37:59.412Z,12.30
2023-11-30T13:42:02.973Z,13.47
2023-11-30T13:46:07.360Z,12.48
2023-11-30T13:50:20.523Z,13.60
2023-11-30T13:54:33.489Z,11.63
2023-11-30T13:58:36.473Z,8.73
2023-11-30T14:02:40.937Z,10.38
2023-11-30T14:06:45.446Z,11.33
2023-11-30T14:10:48.505Z,8.82
2023-11-30T14:14:52.841Z,8.90
2023-11-30T14:18:56.114Z,8.77
2023-11-30T14:22:59.821Z,11.50
2023-11-30T14:27:04.520Z,12.88
2023-11-30T14:31:08.834Z,13.30
2023-11-30T14:35:13.289Z,10.40
2023-11-30T14:39:16.419Z,9.43
2023-11-30T14:43:19.194Z,9.88
2023-11-30T14:47:37.508Z,9.07
2023-11-30T14:51:40.370Z,7.82
2023-11-30T14:55:43.451Z,6.85
2023-11-30T14:59:48.126Z,6.78
2023-11-30T15:03:51.277Z,5.97
2023-11-30T15:07:54.316Z,6.55
2023-11-30T15:11:57.700Z,6.50
2023-11-30T15:16:00.783Z,7.97
2023-11-30T15:20:05.159Z,9.10
2023-11-30T15:24:08.180Z,7.32
2023-11-30T15:28:12.929Z,8.23
2023-11-30T15:32:15.615Z,7.57
2023-11-30T15:36:19.658Z,8.15
2023-11-30T15:40:22.741Z,5.82
2023-11-30T15:44:26.187Z,5.70
